Ramon Llull — ECDI — position and weather

sailwx.info

Track history (hours):
 
Tides and Currents Weather Stations Pressure Air Temp Water Temp Dewpoint Dewpoint Depression Visibility Wind Speed Wind Dir Waves Ship Positions

Ramon Llull

Last reported at 2017-Oct-16 11:18 UTC. Time now 2017-Oct-17 02:14 UTC.
Position N 39°26' E 003°19'.

Length 83 m; draft 1.8 m.

Type: High speed craft. MMSI: 224247000.

Date/timePositionNaut miles runAvg speedWind from/ knotsBaromVisibWave heightAir tempDewpointWater temp
2017-Oct-16 11:18N 39°26' E 003°19'1418.7
2017-Oct-16 10:33N 39°16' E 003°06'118.8
2017-Oct-16 10:30N 39°15' E 003°06'917.7
2017-Oct-16 10:00N 39°17' E 002°55'918.6
2017-Oct-16 09:30N 39°22' E 002°44'919.0
2017-Oct-16 09:00N 39°31' E 002°40'3 5.2
2017-Oct-16 08:31N 39°33' E 002°38'0 0.0
2017-Oct-16 08:00N 39°33' E 002°38'0 0.0
2017-Oct-16 07:30N 39°33' E 002°38'0 0.0
2017-Oct-16 07:00N 39°33' E 002°38'0 0.0
2017-Oct-16 06:30N 39°33' E 002°38'0 0.0
2017-Oct-16 06:00N 39°33' E 002°38'0 0.0
2017-Oct-16 05:30N 39°33' E 002°38'0 0.0
2017-Oct-16 05:00N 39°33' E 002°38'0 0.0
2017-Oct-16 04:30N 39°33' E 002°38'0 0.0
2017-Oct-16 04:00N 39°33' E 002°38'0 0.0
2017-Oct-16 03:30N 39°33' E 002°38'0 0.0
2017-Oct-16 03:00N 39°33' E 002°38'0 0.0
2017-Oct-16 02:30N 39°33' E 002°38'0 0.0
2017-Oct-16 02:01N 39°33' E 002°38'0 0.0
2017-Oct-16 01:30N 39°33' E 002°38'0 0.0
2017-Oct-16 01:01N 39°33' E 002°38'0 0.0
2017-Oct-16 00:30N 39°33' E 002°38'0 0.0
2017-Oct-16 00:00N 39°33' E 002°38'0 0.0
2017-Oct-15 23:30N 39°33' E 002°38'0 0.0
2017-Oct-15 23:00N 39°33' E 002°38'1 2.9
2017-Oct-15 22:30N 39°32' E 002°38'1223.9
2017-Oct-15 22:00N 39°23' E 002°27'4324.3
2017-Oct-15 20:14N 38°60' E 001°40'624.1
2017-Oct-15 20:00N 38°57' E 001°34'611.7
2017-Oct-15 19:30N 38°54' E 001°27'0 0.0
2017-Oct-15 19:00N 38°54' E 001°27'914.1
2017-Oct-15 18:23N 38°48' E 001°19'  
2017-Oct-08 16:32N 38°44' E 001°25'0 0.6
2017-Oct-08 16:26N 38°44' E 001°25'819.6
2017-Oct-08 16:00N 38°53' E 001°27'2 3.2
2017-Oct-08 15:30N 38°54' E 001°27'0 0.0
2017-Oct-08 15:00N 38°54' E 001°27'0 0.0
2017-Oct-08 14:30N 38°54' E 001°27'0 0.0
2017-Oct-08 14:00N 38°54' E 001°27'0 0.0
2017-Oct-08 13:30N 38°54' E 001°27'0 0.0
2017-Oct-08 13:00N 38°54' E 001°27'0 0.0
2017-Oct-08 12:30N 38°54' E 001°27'0 0.0
2017-Oct-08 12:00N 38°54' E 001°27'0 0.0
2017-Oct-08 11:30N 38°54' E 001°27'0 0.0
2017-Oct-08 11:00N 38°54' E 001°27'0 0.2
2017-Oct-08 10:30N 38°54' E 001°27'7 0.4
2017-Oct-07 16:18N 38°48' E 001°24'722.3
2017-Oct-07 16:01N 38°54' E 001°27'0 0.6
2017-Oct-07 15:29N 38°54' E 001°27'0 0.0
2017-Oct-07 14:59N 38°54' E 001°27'0 0.0
2017-Oct-07 14:29N 38°54' E 001°27'0 0.0
2017-Oct-07 13:59N 38°54' E 001°27'0 0.0
2017-Oct-07 13:29N 38°54' E 001°27'0 0.0
2017-Oct-07 12:59N 38°54' E 001°27'0 0.0
2017-Oct-07 12:29N 38°54' E 001°27'0 0.0
2017-Oct-07 11:59N 38°54' E 001°27'0 0.0
2017-Oct-07 11:29N 38°54' E 001°27'0 0.0
2017-Oct-07 10:59N 38°54' E 001°27'0 0.4
2017-Oct-07 10:30N 38°54' E 001°27'10 0.5
2017-Oct-06 16:25N 38°45' E 001°25'1022.2
2017-Oct-06 15:59N 38°54' E 001°27'0 0.6
2017-Oct-06 15:29N 38°54' E 001°27'0 0.0
2017-Oct-06 15:00N 38°54' E 001°27'0 0.0
2017-Oct-06 14:30N 38°54' E 001°27'0 0.0
2017-Oct-06 13:59N 38°54' E 001°27'0 0.0
2017-Oct-06 13:30N 38°54' E 001°27'0 0.0
2017-Oct-06 13:00N 38°54' E 001°27'0 0.0
2017-Oct-06 12:30N 38°54' E 001°27'0 0.0
2017-Oct-06 11:57N 38°54' E 001°27'0 0.2
2017-Oct-06 11:28N 38°54' E 001°27'  
Track history (hours):
 
Tides and Currents Weather Stations Pressure Air Temp Water Temp Dewpoint Dewpoint Depression Visibility Wind Speed Wind Dir Waves Ship Positions

Ramon Llull

Last reported at 2017-Oct-16 11:18 UTC. Time now 2017-Oct-17 02:14 UTC.
Position N 39°26' E 003°19'.

Length 83 m; draft 1.8 m.

Type: High speed craft. MMSI: 224247000.

Date/timePositionNaut miles runAvg speedWind from/ knotsBaromVisibWave heightAir tempDewpointWater temp
2017-Oct-16 11:18N 39°26' E 003°19'1418.7
2017-Oct-16 10:33N 39°16' E 003°06'118.8
2017-Oct-16 10:30N 39°15' E 003°06'917.7
2017-Oct-16 10:00N 39°17' E 002°55'918.6
2017-Oct-16 09:30N 39°22' E 002°44'919.0
2017-Oct-16 09:00N 39°31' E 002°40'3 5.2
2017-Oct-16 08:31N 39°33' E 002°38'0 0.0
2017-Oct-16 08:00N 39°33' E 002°38'0 0.0
2017-Oct-16 07:30N 39°33' E 002°38'0 0.0
2017-Oct-16 07:00N 39°33' E 002°38'0 0.0
2017-Oct-16 06:30N 39°33' E 002°38'0 0.0
2017-Oct-16 06:00N 39°33' E 002°38'0 0.0
2017-Oct-16 05:30N 39°33' E 002°38'0 0.0
2017-Oct-16 05:00N 39°33' E 002°38'0 0.0
2017-Oct-16 04:30N 39°33' E 002°38'0 0.0
2017-Oct-16 04:00N 39°33' E 002°38'0 0.0
2017-Oct-16 03:30N 39°33' E 002°38'0 0.0
2017-Oct-16 03:00N 39°33' E 002°38'0 0.0
2017-Oct-16 02:30N 39°33' E 002°38'0 0.0
2017-Oct-16 02:01N 39°33' E 002°38'0 0.0
2017-Oct-16 01:30N 39°33' E 002°38'0 0.0
2017-Oct-16 01:01N 39°33' E 002°38'0 0.0
2017-Oct-16 00:30N 39°33' E 002°38'0 0.0
2017-Oct-16 00:00N 39°33' E 002°38'0 0.0
2017-Oct-15 23:30N 39°33' E 002°38'0 0.0
2017-Oct-15 23:00N 39°33' E 002°38'1 2.9
2017-Oct-15 22:30N 39°32' E 002°38'1223.9
2017-Oct-15 22:00N 39°23' E 002°27'4324.3
2017-Oct-15 20:14N 38°60' E 001°40'624.1
2017-Oct-15 20:00N 38°57' E 001°34'611.7
2017-Oct-15 19:30N 38°54' E 001°27'0 0.0
2017-Oct-15 19:00N 38°54' E 001°27'914.1
2017-Oct-15 18:23N 38°48' E 001°19'  
2017-Oct-08 16:32N 38°44' E 001°25'0 0.6
2017-Oct-08 16:26N 38°44' E 001°25'819.6
2017-Oct-08 16:00N 38°53' E 001°27'2 3.2
2017-Oct-08 15:30N 38°54' E 001°27'0 0.0
2017-Oct-08 15:00N 38°54' E 001°27'0 0.0
2017-Oct-08 14:30N 38°54' E 001°27'0 0.0
2017-Oct-08 14:00N 38°54' E 001°27'0 0.0
2017-Oct-08 13:30N 38°54' E 001°27'0 0.0
2017-Oct-08 13:00N 38°54' E 001°27'0 0.0
2017-Oct-08 12:30N 38°54' E 001°27'0 0.0
2017-Oct-08 12:00N 38°54' E 001°27'0 0.0
2017-Oct-08 11:30N 38°54' E 001°27'0 0.0
2017-Oct-08 11:00N 38°54' E 001°27'0 0.2
2017-Oct-08 10:30N 38°54' E 001°27'7 0.4
2017-Oct-07 16:18N 38°48' E 001°24'722.3
2017-Oct-07 16:01N 38°54' E 001°27'0 0.6
2017-Oct-07 15:29N 38°54' E 001°27'0 0.0
2017-Oct-07 14:59N 38°54' E 001°27'0 0.0
2017-Oct-07 14:29N 38°54' E 001°27'0 0.0
2017-Oct-07 13:59N 38°54' E 001°27'0 0.0
2017-Oct-07 13:29N 38°54' E 001°27'0 0.0
2017-Oct-07 12:59N 38°54' E 001°27'0 0.0
2017-Oct-07 12:29N 38°54' E 001°27'0 0.0
2017-Oct-07 11:59N 38°54' E 001°27'0 0.0
2017-Oct-07 11:29N 38°54' E 001°27'0 0.0
2017-Oct-07 10:59N 38°54' E 001°27'0 0.4
2017-Oct-07 10:30N 38°54' E 001°27'10 0.5
2017-Oct-06 16:25N 38°45' E 001°25'1022.2
2017-Oct-06 15:59N 38°54' E 001°27'0 0.6
2017-Oct-06 15:29N 38°54' E 001°27'0 0.0
2017-Oct-06 15:00N 38°54' E 001°27'0 0.0
2017-Oct-06 14:30N 38°54' E 001°27'0 0.0
2017-Oct-06 13:59N 38°54' E 001°27'0 0.0
2017-Oct-06 13:30N 38°54' E 001°27'0 0.0
2017-Oct-06 13:00N 38°54' E 001°27'0 0.0
2017-Oct-06 12:30N 38°54' E 001°27'0 0.0
2017-Oct-06 11:57N 38°54' E 001°27'0 0.2
2017-Oct-06 11:28N 38°54' E 001°27'  

Dump ship's entire track history